Time;durP1;ratioP1;P1;durP2;ratioP2;P2;SDS_P1;SDS_P2;PMS_P1;PMS_P2;Temp;Humidity;BMP_temperature;BMP_pressure;BME280_temperature;BME280_humidity;BME280_pressure;Samples;Min_cycle;Max_cycle;Signal;HPM_P1;HPM_P2
2023/10/22 00:00:57;;;;;;;;;;;;;;;;;;5091200;27;19938;-75
2023/10/22 00:03:24;;;;;;;;;;;;;;;;;;5091654;28;19920;-74
2023/10/22 00:05:49;;;;;;;;;;;;;;;;;;5091325;28;19908;-75
2023/10/22 00:08:15;;;;;;;;;;;;;;;;;;5090984;28;19958;-75
2023/10/22 00:11:13;;;;;;;;;;;;;;;;;;5092141;27;19919;-75
2023/10/22 00:13:39;;;;;;;;;;;;;;;;;;5091068;28;20011;-75
2023/10/22 00:16:04;;;;;;;;;;;;;;;;;;5090092;28;19958;-74
2023/10/22 00:18:30;;;;;;;;;;;;;;;;;;5091322;28;19919;-75
2023/10/22 00:20:56;;;;;;;;;;;;;;;;;;5091059;28;20011;-76
2023/10/22 00:24:31;;;;;;;;;;;;;;;;;;5091706;28;20274;-75
2023/10/22 00:26:58;;;;;;;;;;;;;;;;;;5091866;28;20003;-75
2023/10/22 00:29:24;;;;;;;;;;;;;;;;;;5091038;28;20276;-75
2023/10/22 00:31:49;;;;;;;;;;;;;;;;;;5091848;28;19908;-75
2023/10/22 00:34:15;;;;;;;;;;;;;;;;;;5091225;28;20357;-75
2023/10/22 00:36:41;;;;;;;;;;;;;;;;;;5089473;28;20380;-75
2023/10/22 00:39:07;;;;;;;;;;;;;;;;;;5091181;28;19908;-75
2023/10/22 00:41:33;;;;;;;;;;;;;;;;;;5090593;28;19933;-75
2023/10/22 00:43:59;;;;;;;;;;;;;;;;;;5091090;28;19916;-75
2023/10/22 00:46:25;;;;;;;;;;;;;;;;;;5091031;28;19991;-75
2023/10/22 00:50:33;;;;;;;;;;;;;;;;;;5091103;27;19916;-75
2023/10/22 00:52:59;;;;;;;;;;;;;;;;;;5091628;28;20353;-75
2023/10/22 00:55:24;;;;;;;;;;;;;;;;;;5091328;28;19912;-74
2023/10/22 00:57:51;;;;;;;;;;;;;;;;;;5090913;28;19916;-74
2023/10/22 01:00:17;;;;;;;;;;;;;;;;;;5091313;28;20288;-75
2023/10/22 01:02:43;;;;;;;;;;;;;;;;;;5090827;28;19995;-75
2023/10/22 01:05:09;;;;;;;;;;;;;;;;;;5091231;28;19961;-75
2023/10/22 01:07:35;;;;;;;;;;;;;;;;;;5091124;28;19913;-75
2023/10/22 01:10:01;;;;;;;;;;;;;;;;;;5090636;28;19939;-75
2023/10/22 01:13:13;;;;;;;;;;;;;;;;;;5091536;27;20393;-74
2023/10/22 01:15:39;;;;;;;;;;;;;;;;;;5091461;28;20008;-75
2023/10/22 01:18:05;;;;;;;;;;;;;;;;;;5091140;28;20319;-75
2023/10/22 01:20:32;;;;;;;;;;;;;;;;;;5091386;28;20275;-75
2023/10/22 01:22:59;;;;;;;;;;;;;;;;;;5091311;28;20396;-76
2023/10/22 01:25:25;;;;;;;;;;;;;;;;;;5090803;28;19908;-75
2023/10/22 01:27:51;;;;;;;;;;;;;;;;;;5091240;28;19962;-75
2023/10/22 01:30:17;;;;;;;;;;;;;;;;;;5091192;28;20011;-75
2023/10/22 01:32:43;;;;;;;;;;;;;;;;;;5090738;28;19940;-75
2023/10/22 01:35:10;;;;;;;;;;;;;;;;;;5091102;28;19916;-75
2023/10/22 01:37:36;;;;;;;;;;;;;;;;;;5091077;28;19908;-75
2023/10/22 01:40:03;;;;;;;;;;;;;;;;;;5090699;28;19915;-75
2023/10/22 01:42:29;;;;;;;;;;;;;;;;;;5090942;28;19908;-75
2023/10/22 01:44:55;;;;;;;;;;;;;;;;;;5090619;28;19916;-75
2023/10/22 01:47:21;;;;;;;;;;;;;;;;;;5091186;28;20342;-75
2023/10/22 01:49:47;;;;;;;;;;;;;;;;;;5091175;28;19916;-76
2023/10/22 01:52:52;;;;;;;;;;;;;;;;;;5091340;27;19923;-74
2023/10/22 01:55:18;;;;;;;;;;;;;;;;;;5091562;28;20350;-75
2023/10/22 01:57:44;;;;;;;;;;;;;;;;;;5091315;28;19962;-75
2023/10/22 02:00:10;;;;;;;;;;;;;;;;;;5089764;28;19915;-74
2023/10/22 02:02:37;;;;;;;;;;;;;;;;;;5091237;28;20015;-75
2023/10/22 02:05:03;;;;;;;;;;;;;;;;;;5091873;28;19909;-75
2023/10/22 02:07:29;;;;;;;;;;;;;;;;;;5090965;28;19915;-75
2023/10/22 02:10:33;;;;;;;;;;;;;;;;;;5111962;27;19912;-75
2023/10/22 02:12:59;;;;;;;;;;;;;;;;;;5111830;28;20019;-74
2023/10/22 02:15:26;;;;;;;;;;;;;;;;;;5112490;28;20376;-74
2023/10/22 02:20:18;;;;;;;;;;;;;;;;;;5112115;27;19935;-74
2023/10/22 02:23:31;;;;;;;;;;;;;;;;;;5112229;27;19916;-74
2023/10/22 02:25:57;;;;;;;;;;;;;;;;;;5111772;28;19915;-75
2023/10/22 02:28:23;;;;;;;;;;;;;;;;;;5111314;28;19908;-75
2023/10/22 02:30:49;;;;;;;;;;;;;;;;;;5111632;28;19908;-75
2023/10/22 02:33:15;;;;;;;;;;;;;;;;;;5111630;28;19908;-75
2023/10/22 02:35:41;;;;;;;;;;;;;;;;;;5111172;28;19912;-75
2023/10/22 02:38:07;;;;;;;;;;;;;;;;;;5112097;28;20323;-75
2023/10/22 02:40:33;;;;;;;;;;;;;;;;;;5111580;28;19908;-75
2023/10/22 02:45:15;;;;;;;;;;;;;;;;;;5091926;27;19916;-75
2023/10/22 02:51:22;;;;;;;;;;;;;;;;;;5091822;27;19912;-75
2023/10/22 02:53:48;;;;;;;;;;;;;;;;;;5091856;28;20297;-75
2023/10/22 02:56:14;;;;;;;;;;;;;;;;;;5091012;28;20003;-75
2023/10/22 02:58:40;;;;;;;;;;;;;;;;;;5091310;28;19908;-75
2023/10/22 03:01:06;;;;;;;;;;;;;;;;;;5089952;28;19951;-75
2023/10/22 03:03:38;;;;;;;;;;;;;;;;;;5090800;28;20411;-75
2023/10/22 03:06:04;;;;;;;;;;;;;;;;;;5091513;28;19908;-75
2023/10/22 03:08:31;;;;;;;;;;;;;;;;;;5091293;28;19908;-75
2023/10/22 03:10:57;;;;;;;;;;;;;;;;;;5090598;28;20364;-75
2023/10/22 03:13:23;;;;;;;;;;;;;;;;;;5089659;28;19938;-75
2023/10/22 03:15:49;;;;;;;;;;;;;;;;;;5090980;28;20042;-75
2023/10/22 03:18:15;;;;;;;;;;;;;;;;;;5090490;28;19915;-75
2023/10/22 03:20:41;;;;;;;;;;;;;;;;;;5091372;28;19908;-75
2023/10/22 03:23:07;;;;;;;;;;;;;;;;;;5089959;28;20249;-75
2023/10/22 03:25:34;;;;;;;;;;;;;;;;;;5090362;28;19935;-74
2023/10/22 03:28:03;;;;;;;;;;;;;;;;;;5089436;28;20403;-75
2023/10/22 03:30:29;;;;;;;;;;;;;;;;;;5088997;28;19948;-74
2023/10/22 03:34:55;;;;;;;;;;;;;;;;;;5092348;28;19916;-75
2023/10/22 03:37:21;;;;;;;;;;;;;;;;;;5091034;28;20006;-75
2023/10/22 03:39:47;;;;;;;;;;;;;;;;;;5091313;28;19909;-75
2023/10/22 03:42:13;;;;;;;;;;;;;;;;;;5091318;28;20018;-75
2023/10/22 03:44:39;;;;;;;;;;;;;;;;;;5089564;28;19908;-75
2023/10/22 03:48:21;;;;;;;;;;;;;;;;;;5112280;27;19912;-75
2023/10/22 03:50:46;;;;;;;;;;;;;;;;;;5111784;28;20026;-75
2023/10/22 03:53:12;;;;;;;;;;;;;;;;;;5111431;28;20376;-74
2023/10/22 03:55:38;;;;;;;;;;;;;;;;;;5111669;28;19912;-74
2023/10/22 03:58:04;;;;;;;;;;;;;;;;;;5111750;28;19962;-75
2023/10/22 04:00:30;;;;;;;;;;;;;;;;;;5109881;28;19915;-75
2023/10/22 04:02:56;;;;;;;;;;;;;;;;;;5111498;28;19915;-75
2023/10/22 04:05:22;;;;;;;;;;;;;;;;;;5111476;28;19977;-75
2023/10/22 04:07:48;;;;;;;;;;;;;;;;;;5110981;28;19981;-75
2023/10/22 04:10:15;;;;;;;;;;;;;;;;;;5111391;28;19915;-75
2023/10/22 04:12:41;;;;;;;;;;;;;;;;;;5111219;28;19961;-75
2023/10/22 04:15:06;;;;;;;;;;;;;;;;;;5111909;28;20319;-75
2023/10/22 04:17:32;;;;;;;;;;;;;;;;;;5111246;28;20314;-75
2023/10/22 04:19:58;;;;;;;;;;;;;;;;;;5111039;28;20368;-75
2023/10/22 04:22:24;;;;;;;;;;;;;;;;;;5111166;28;19995;-75
2023/10/22 04:24:50;;;;;;;;;;;;;;;;;;5111049;28;19908;-75
2023/10/22 04:27:16;;;;;;;;;;;;;;;;;;5110607;28;19916;-75
2023/10/22 04:29:46;;;;;;;;;;;;;;;;;;5111019;28;20007;-75
2023/10/22 04:32:12;;;;;;;;;;;;;;;;;;5109691;28;20257;-75
2023/10/22 04:34:37;;;;;;;;;;;;;;;;;;5109208;28;20003;-75
2023/10/22 04:37:04;;;;;;;;;;;;;;;;;;5110783;28;20288;-75
2023/10/22 04:39:30;;;;;;;;;;;;;;;;;;5111192;28;19908;-75
2023/10/22 04:41:56;;;;;;;;;;;;;;;;;;5110447;28;19915;-75
2023/10/22 04:44:22;;;;;;;;;;;;;;;;;;5110817;28;19908;-75
2023/10/22 04:46:48;;;;;;;;;;;;;;;;;;5110466;28;19927;-75
2023/10/22 04:49:13;;;;;;;;;;;;;;;;;;5110236;28;19916;-75
2023/10/22 04:51:39;;;;;;;;;;;;;;;;;;5110605;28;19915;-75
2023/10/22 04:54:05;;;;;;;;;;;;;;;;;;5110715;28;19912;-75
2023/10/22 04:56:48;;;;;;;;;;;;;;;;;;5091123;27;19923;-74
2023/10/22 05:01:44;;;;;;;;;;;;;;;;;;5132026;27;19916;-75
2023/10/22 05:04:10;;;;;;;;;;;;;;;;;;5132230;28;20006;-75
2023/10/22 05:08:44;;;;;;;;;;;;;;;;;;5112540;27;19918;-75
2023/10/22 05:11:57;;;;;;;;;;;;;;;;;;5112548;27;19912;-74
2023/10/22 05:14:23;;;;;;;;;;;;;;;;;;5111774;28;20018;-74
2023/10/22 05:16:49;;;;;;;;;;;;;;;;;;5111335;28;19908;-75
2023/10/22 05:19:15;;;;;;;;;;;;;;;;;;5111866;28;19908;-75
2023/10/22 05:21:41;;;;;;;;;;;;;;;;;;5111619;28;19954;-75
2023/10/22 05:24:09;;;;;;;;;;;;;;;;;;5111163;28;19912;-75
2023/10/22 05:26:35;;;;;;;;;;;;;;;;;;5111561;28;19908;-75
2023/10/22 05:29:01;;;;;;;;;;;;;;;;;;5111462;28;19984;-75
2023/10/22 05:31:27;;;;;;;;;;;;;;;;;;5111020;28;20405;-74
2023/10/22 05:34:56;;;;;;;;;;;;;;;;;;5173675;27;20009;-75
2023/10/22 05:37:22;;;;;;;;;;;;;;;;;;5173334;27;19922;-74
2023/10/22 05:39:48;;;;;;;;;;;;;;;;;;5173660;27;19930;-75
2023/10/22 05:42:14;;;;;;;;;;;;;;;;;;5173679;27;20351;-75
2023/10/22 05:44:40;;;;;;;;;;;;;;;;;;5173199;27;19907;-74
2023/10/22 05:47:07;;;;;;;;;;;;;;;;;;5173539;27;20462;-75
2023/10/22 05:49:32;;;;;;;;;;;;;;;;;;5173672;27;19911;-75
2023/10/22 05:51:58;;;;;;;;;;;;;;;;;;5173072;27;19907;-75
2023/10/22 05:55:24;;;;;;;;;;;;;;;;;;5091433;28;19923;-75
2023/10/22 05:57:50;;;;;;;;;;;;;;;;;;5091314;28;19999;-74
2023/10/22 06:00:16;;;;;;;;;;;;;;;;;;5090905;28;19954;-75
2023/10/22 06:02:43;;;;;;;;;;;;;;;;;;5091328;28;19914;-75
2023/10/22 06:05:09;;;;;;;;;;;;;;;;;;5090855;28;20322;-75
2023/10/22 06:07:35;;;;;;;;;;;;;;;;;;5091237;28;19908;-75
2023/10/22 06:11:46;;;;;;;;;;;;;;;;;;5112609;27;19922;-75
2023/10/22 06:14:12;;;;;;;;;;;;;;;;;;5110117;28;20002;-75
2023/10/22 06:16:38;;;;;;;;;;;;;;;;;;5111724;28;20394;-75
2023/10/22 06:19:04;;;;;;;;;;;;;;;;;;5111859;28;19915;-75
2023/10/22 06:21:30;;;;;;;;;;;;;;;;;;5112012;28;20275;-75
2023/10/22 06:23:56;;;;;;;;;;;;;;;;;;5111829;28;19916;-75
2023/10/22 06:28:39;;;;;;;;;;;;;;;;;;5091569;27;19916;-75
2023/10/22 06:31:05;;;;;;;;;;;;;;;;;;5091544;28;20011;-75
2023/10/22 06:33:31;;;;;;;;;;;;;;;;;;5091150;28;19966;-75
2023/10/22 06:35:57;;;;;;;;;;;;;;;;;;5090039;28;19923;-75
2023/10/22 06:38:23;;;;;;;;;;;;;;;;;;5091203;28;19915;-75
2023/10/22 06:40:49;;;;;;;;;;;;;;;;;;5090884;28;20382;-75
2023/10/22 06:43:15;;;;;;;;;;;;;;;;;;5091253;28;20028;-75
2023/10/22 06:45:41;;;;;;;;;;;;;;;;;;5091050;28;19908;-75
2023/10/22 06:48:07;;;;;;;;;;;;;;;;;;5090438;28;19917;-75
2023/10/22 06:50:33;;;;;;;;;;;;;;;;;;5091085;28;19931;-75
2023/10/22 06:52:59;;;;;;;;;;;;;;;;;;5090934;28;19912;-75
2023/10/22 06:55:26;;;;;;;;;;;;;;;;;;5089211;28;20361;-76
2023/10/22 06:57:52;;;;;;;;;;;;;;;;;;5090880;28;19908;-76
2023/10/22 07:00:18;;;;;;;;;;;;;;;;;;5089508;28;19991;-76
2023/10/22 07:02:46;;;;;;;;;;;;;;;;;;5090398;28;19913;-76
2023/10/22 07:05:11;;;;;;;;;;;;;;;;;;5090771;28;19934;-76
2023/10/22 07:10:14;;;;;;;;;;;;;;;;;;5091043;28;19917;-75
2023/10/22 07:12:40;;;;;;;;;;;;;;;;;;5091432;28;20451;-75
2023/10/22 07:16:53;;;;;;;;;;;;;;;;;;5091132;27;20296;-75
2023/10/22 07:19:19;;;;;;;;;;;;;;;;;;5091506;28;19928;-75
2023/10/22 07:21:45;;;;;;;;;;;;;;;;;;5091353;28;19909;-75
2023/10/22 07:24:10;;;;;;;;;;;;;;;;;;5089656;28;19947;-75
2023/10/22 07:28:13;;;;;;;;;;;;;;;;;;5091772;28;19923;-74
2023/10/22 07:30:39;;;;;;;;;;;;;;;;;;5089694;28;20395;-74
2023/10/22 07:33:05;;;;;;;;;;;;;;;;;;5091403;28;19909;-75
2023/10/22 07:35:31;;;;;;;;;;;;;;;;;;5091259;28;20280;-75
2023/10/22 07:37:57;;;;;;;;;;;;;;;;;;5090855;28;20335;-75
2023/10/22 07:40:23;;;;;;;;;;;;;;;;;;5091274;28;20364;-74
2023/10/22 07:42:49;;;;;;;;;;;;;;;;;;5091522;28;20276;-75
2023/10/22 07:45:16;;;;;;;;;;;;;;;;;;5090855;28;19909;-75
2023/10/22 07:47:42;;;;;;;;;;;;;;;;;;5091487;28;19917;-75
2023/10/22 07:50:08;;;;;;;;;;;;;;;;;;5091056;28;19909;-75
2023/10/22 07:52:35;;;;;;;;;;;;;;;;;;5090520;28;19909;-75
2023/10/22 07:55:01;;;;;;;;;;;;;;;;;;5090807;28;19916;-75
2023/10/22 07:57:27;;;;;;;;;;;;;;;;;;5090746;28;20280;-75
2023/10/22 07:59:53;;;;;;;;;;;;;;;;;;5090377;28;19932;-75
2023/10/22 08:02:20;;;;;;;;;;;;;;;;;;5090726;28;19923;-76
2023/10/22 08:04:46;;;;;;;;;;;;;;;;;;5090367;28;19908;-75
2023/10/22 08:07:12;;;;;;;;;;;;;;;;;;5089303;28;19917;-75
2023/10/22 08:09:38;;;;;;;;;;;;;;;;;;5090606;28;19995;-76
2023/10/22 08:12:04;;;;;;;;;;;;;;;;;;5088821;28;19954;-75
2023/10/22 08:14:30;;;;;;;446.00;264.02;;;;;;;;;;5089092;28;20953;-75
2023/10/22 08:16:58;;;;;;;;;;;;;;;;;;5090612;28;20089;-76
2023/10/22 08:19:24;;;;;;;;;;;;;;;;;;5089997;28;20355;-75
2023/10/22 08:21:50;;;;;;;;;;;;;;;;;;5090438;28;19908;-75
2023/10/22 08:24:16;;;;;;;;;;;;;;;;;;5090358;28;19905;-76
2023/10/22 08:26:42;;;;;;;;;;;;;;;;;;5089865;28;19916;-75
2023/10/22 08:29:08;;;;;;;;;;;;;;;;;;5090282;28;20037;-75
2023/10/22 08:31:34;;;;;;;;;;;;;;;;;;5090392;28;19965;-76
2023/10/22 08:34:00;;;;;;;;;;;;;;;;;;5089812;28;19912;-75
2023/10/22 08:36:26;;;;;;;;;;;;;;;;;;5090146;28;19904;-76
2023/10/22 08:38:52;;;;;;;;;;;;;;;;;;5080117;28;19904;-75
2023/10/22 08:41:17;;;;;;;;;;;;;;;;;;5076215;28;19950;-76
2023/10/22 08:43:43;;;;;;;;;;;;;;;;;;5076514;28;19904;-76
2023/10/22 08:46:09;;;;;;;;;;;;;;;;;;5076404;28;19916;-76
2023/10/22 08:48:35;;;;;;;;;;;;;;;;;;5075958;28;19942;-76
2023/10/22 08:51:01;;;;;;;;;;;;;;;;;;5076385;28;19911;-75
2023/10/22 08:53:27;;;;;;;;;;;;;;;;;;5076313;28;19958;-76
2023/10/22 08:55:53;;;;;;;;;;;;;;;;;;5075855;28;19908;-75
2023/10/22 08:58:19;;;;;;;;;;;;;;;;;;5074927;28;19939;-75
2023/10/22 09:00:45;;;;;;;;;;;;;;;;;;5074966;28;19912;-75
2023/10/22 09:03:11;;;;;;;;;;;;;;;;;;5075792;28;19904;-75
2023/10/22 09:05:37;;;;;;;;;;;;;;;;;;5076206;28;20002;-75
2023/10/22 09:08:04;;;;;;;;;;;;;;;;;;5075679;28;20494;-75
2023/10/22 09:10:30;;;;;;;;;;;;;;;;;;5076047;28;20275;-76
2023/10/22 09:12:56;;;;;;;;;;;;;;;;;;5074748;28;19936;-75
2023/10/22 09:15:22;;;;;;;;;;;;;;;;;;5075573;28;20257;-75
2023/10/22 09:17:48;;;;;;;;;;;;;;;;;;5075877;28;19927;-76
2023/10/22 09:20:14;;;;;;;;;;;;;;;;;;5075963;28;19908;-76
2023/10/22 09:22:40;;;;;;;;;;;;;;;;;;5075418;28;19950;-75
2023/10/22 09:25:06;;;;;;;;;;;;;;;;;;5075679;28;20249;-76
2023/10/22 09:27:32;;;;;;;;;;;;;;;;;;5075575;28;20288;-75
2023/10/22 09:30:02;;;;;;;;;;;;;;;;;;5075569;28;20335;-75
2023/10/22 09:32:28;;;;;;;;;;;;;;;;;;5075592;28;20368;-75
2023/10/22 09:34:54;;;;;;;;;;;;;;;;;;5075508;28;19911;-75
2023/10/22 09:37:20;;;;;;;;;;;;;;;;;;5074983;28;19909;-76
2023/10/22 09:39:46;;;;;;;;;;;;;;;;;;5075595;28;19904;-75
2023/10/22 09:42:12;;;;;;;;;;;;;;;;;;5075426;28;19911;-75
2023/10/22 09:44:38;;;;;;;;;;;;;;;;;;5073644;28;19904;-76
2023/10/22 09:47:05;;;;;;;;;;;;;;;;;;5074000;28;20105;-76
2023/10/22 09:49:32;;;;;;;;;;;;;;;;;;5074366;28;19908;-76
2023/10/22 09:51:59;;;;;;;;;;;;;;;;;;5073492;28;19904;-76
2023/10/22 09:54:30;;;;;;;406.13;250.15;;;;;;;;;;5074817;28;19930;-76
2023/10/22 09:56:56;;;;;;;;;;;;;;;;;;5075141;28;20025;-76
2023/10/22 09:59:22;;;;;;;;;;;;;;;;;;5074685;28;19910;-75
2023/10/22 10:01:52;;;;;;;;;;;;;;;;;;5074986;28;19958;-76
2023/10/22 10:04:18;;;;;;;;;;;;;;;;;;5074551;28;19905;-76
2023/10/22 10:06:43;;;;;;;;;;;;;;;;;;5074813;28;19935;-76
2023/10/22 10:09:09;;;;;;;;;;;;;;;;;;5074821;28;19909;-76
2023/10/22 10:11:35;;;;;;;;;;;;;;;;;;5074469;28;19911;-76
2023/10/22 10:14:01;;;;;;;;;;;;;;;;;;5074909;28;19904;-76
2023/10/22 10:16:27;;;;;;;;;;;;;;;;;;5073399;28;19905;-76
2023/10/22 10:18:53;;;;;;;;;;;;;;;;;;5074341;28;19912;-76
2023/10/22 10:21:19;;;;;;;;;;;;;;;;;;5074659;28;19908;-76
2023/10/22 10:23:45;;;;;;;;;;;;;;;;;;5074564;28;19989;-75
2023/10/22 10:26:11;;;;;;;;;;;;;;;;;;5072532;28;19923;-75
2023/10/22 10:28:37;;;;;;;;;;;;;;;;;;5074671;28;19905;-75
2023/10/22 10:31:03;;;;;;;;;;;;;;;;;;5074540;28;19904;-76
2023/10/22 10:33:29;;;;;;;;;;;;;;;;;;5074307;28;19966;-75
2023/10/22 10:35:55;;;;;;;;;;;;;;;;;;5074575;28;20349;-75
2023/10/22 10:38:21;;;;;;;;;;;;;;;;;;5074305;28;20331;-75
2023/10/22 10:40:48;;;;;;;427.83;253.75;;;;;;;;;;5073604;28;20391;-75
2023/10/22 10:43:14;;;;;;;;;;;;;;;;;;5074621;28;20520;-75
2023/10/22 10:45:41;;;;;;;;;;;;;;;;;;5074349;28;19909;-75
2023/10/22 10:48:07;;;;;;;;;;;;;;;;;;5072436;28;20266;-75
2023/10/22 10:50:33;;;;;;;;;;;;;;;;;;5072861;28;19962;-75
2023/10/22 10:52:59;;;;;;;;;;;;;;;;;;5074148;28;19947;-75
2023/10/22 10:55:25;;;;;;;;;;;;;;;;;;5073730;28;20410;-75
2023/10/22 10:57:51;;;;;;;;;;;;;;;;;;5074266;28;19904;-75
2023/10/22 11:00:20;;;;;;;;;;;;;;;;;;5074182;28;19936;-75
2023/10/22 11:02:50;;;;;;;532.13;282.55;;;;;;;;;;5072495;28;20395;-75
2023/10/22 11:05:16;;;;;;;;;;;;;;;;;;5073884;28;20035;-75
2023/10/22 11:07:42;;;;;;;;;;;;;;;;;;5073415;28;19919;-75
2023/10/22 11:10:15;;;;;;;528.22;283.67;;;;;;;;;;5073181;28;20399;-75
2023/10/22 11:12:41;;;;;;;;;;;;;;;;;;5073796;28;20085;-75
2023/10/22 11:15:11;;;;;;;594.72;292.20;;;;;;;;;;5072008;28;20435;-75
2023/10/22 11:17:41;;;;;;;;;;;;;;;;;;5073819;28;20024;-75
2023/10/22 11:20:07;;;;;;;;;;;;;;;;;;5073906;28;20257;-75
2023/10/22 11:22:33;;;;;;;606.50;297.73;;;;;;;;;;5071583;28;20382;-75
2023/10/22 11:24:59;;;;;;;;;;;;;;;;;;5074032;28;20257;-75
2023/10/22 11:27:25;;;;;;;601.33;292.75;;;;;;;;;;5072175;28;20845;-75
2023/10/22 11:29:51;;;;;;;;;;;;;;;;;;5073328;28;20553;-76
2023/10/22 11:32:18;;;;;;;625.53;288.95;;;;;;;;;;5072235;28;20411;-76
2023/10/22 11:34:44;;;;;;;;;;;;;;;;;;5073815;28;20438;-76
2023/10/22 11:37:10;;;;;;;;;;;;;;;;;;5073204;28;19986;-76
2023/10/22 11:39:36;;;;;;;632.85;296.55;;;;;;;;;;5072044;28;20487;-76
2023/10/22 11:42:07;;;;;;;;;;;;;;;;;;5073576;28;20146;-75
2023/10/22 11:44:33;;;;;;;630.00;288.88;;;;;;;;;;5071605;28;20384;-76
2023/10/22 11:46:59;;;;;;;;;;;;;;;;;;5073363;28;20319;-76
2023/10/22 11:49:25;;;;;;;;;;;;;;;;;;5073524;28;19911;-76
2023/10/22 11:51:51;;;;;;;;;;;;;;;;;;5073132;28;20376;-76
2023/10/22 11:54:17;;;;;;;;;;;;;;;;;;5073768;28;19904;-76
2023/10/22 11:56:43;;;;;;;631.58;295.73;;;;;;;;;;5071334;28;20444;-76
2023/10/22 11:59:09;;;;;;;419.10;222.20;;;;;;;;;;5071982;28;20073;-76
2023/10/22 12:01:35;;;;;;;;;;;;;;;;;;5073571;28;20024;-76
2023/10/22 12:04:03;;;;;;;644.85;300.35;;;;;;;;;;5071310;28;20379;-76
2023/10/22 12:06:29;;;;;;;456.40;229.05;;;;;;;;;;5073015;28;20196;-75
2023/10/22 12:08:56;;;;;;;441.23;240.30;;;;;;;;;;5073198;28;20120;-75
2023/10/22 12:11:21;;;;;;;;;;;;;;;;;;5072891;28;20025;-75
2023/10/22 12:13:47;;;;;;;;;;;;;;;;;;5075059;28;19950;-76
2023/10/22 12:16:14;;;;;;;626.72;294.13;;;;;;;;;;5075345;28;20524;-76
2023/10/22 12:18:39;;;;;;;;;;;;;;;;;;5076721;28;20036;-76
2023/10/22 12:21:06;;;;;;;597.40;295.55;;;;;;;;;;5075470;28;20859;-76
2023/10/22 12:23:32;;;;;;;;;;;;;;;;;;5076916;28;20025;-76
2023/10/22 12:25:58;;;;;;;603.78;294.65;;;;;;;;;;5074575;28;20402;-75
2023/10/22 12:28:26;;;;;;;460.17;244.07;;;;;;;;;;5076888;28;20467;-76
2023/10/22 12:30:52;;;;;;;407.90;194.75;;;;;;;;;;5077049;28;20086;-76
2023/10/22 12:33:18;;;;;;;394.90;159.60;;;;;;;;;;5076271;28;20021;-76
2023/10/22 12:35:44;;;;;;;543.38;275.17;;;;;;;;;;5076351;28;20096;-76
2023/10/22 12:38:10;;;;;;;;;;;;;;;;;;5076677;28;20043;-76
2023/10/22 12:40:36;;;;;;;605.65;300.17;;;;;;;;;;5074817;28;20391;-76
2023/10/22 12:43:03;;;;;;;;;;;;;;;;;;5077189;28;20032;-76
2023/10/22 12:45:30;;;;;;;644.40;303.42;;;;;;;;;;5075368;28;20859;-76
2023/10/22 12:47:56;;;;;;;;;;;;;;;;;;5076055;28;20105;-76
2023/10/22 12:50:22;;;;;;;647.17;301.25;;;;;;;;;;5075044;28;20447;-76
2023/10/22 12:52:48;;;;;;;;;;;;;;;;;;5075150;28;20028;-75
2023/10/22 12:55:14;;;;;;;576.08;273.63;;;;;;;;;;5074661;28;19911;-76
2023/10/22 12:57:40;;;;;;;;;;;;;;;;;;5076680;28;20039;-76
2023/10/22 13:00:06;;;;;;;;;;;;;;;;;;5075888;28;20303;-76
2023/10/22 13:02:34;;;;;;;625.57;300.83;;;;;;;;;;5075291;28;20860;-75
2023/10/22 13:05:00;;;;;;;;;;;;;;;;;;5076349;28;20349;-76
2023/10/22 13:07:26;;;;;;;635.00;299.63;;;;;;;;;;5074216;28;20775;-76
2023/10/22 13:09:52;;;;;;;;;;;;;;;;;;5075999;28;20017;-76
2023/10/22 13:12:18;;;;;;;631.60;300.15;;;;;;;;;;5073696;28;20402;-76
2023/10/22 13:14:44;;;;;;;;;;;;;;;;;;5075658;28;20032;-76
2023/10/22 13:17:10;;;;;;;626.55;298.83;;;;;;;;;;5074458;28;20403;-76
2023/10/22 13:19:36;;;;;;;;;;;;;;;;;;5075856;28;20021;-76
2023/10/22 13:22:02;;;;;;;637.25;302.13;;;;;;;;;;5073797;28;20402;-76
2023/10/22 13:24:28;;;;;;;;;;;;;;;;;;5074527;28;20438;-76
2023/10/22 13:26:56;;;;;;;638.27;306.80;;;;;;;;;;5074238;28;20514;-76
2023/10/22 13:29:22;;;;;;;;;;;;;;;;;;5075255;28;20255;-76
2023/10/22 13:31:48;;;;;;;;;;;;;;;;;;5074446;28;20459;-75
2023/10/22 13:34:14;;;;;;;596.90;303.45;;;;;;;;;;5074205;28;20406;-76
2023/10/22 13:36:40;;;;;;;;;;;;;;;;;;5075101;28;20059;-75
2023/10/22 13:39:06;;;;;;;;;;;;;;;;;;5075465;28;19975;-75
2023/10/22 13:41:32;;;;;;;;;;;;;;;;;;5075414;28;19905;-75
2023/10/22 13:43:58;;;;;;;607.03;300.00;;;;;;;;;;5074231;28;20395;-75
2023/10/22 13:46:24;;;;;;;;;;;;;;;;;;5073982;28;20495;-75
2023/10/22 13:48:50;;;;;;;;;;;;;;;;;;5075563;28;19930;-75
2023/10/22 13:51:16;;;;;;;596.42;305.27;;;;;;;;;;5073891;28;21005;-75
2023/10/22 13:53:42;;;;;;;;;;;;;;;;;;5075145;28;20476;-75
2023/10/22 13:56:08;;;;;;;581.95;297.90;;;;;;;;;;5073779;28;20415;-75
2023/10/22 13:58:35;;;;;;;;;;;;;;;;;;5074684;28;20032;-75
2023/10/22 14:01:01;;;;;;;;;;;;;;;;;;5075010;28;19927;-75
2023/10/22 14:03:27;;;;;;;587.92;295.73;;;;;;;;;;5073115;28;20720;-75
2023/10/22 14:05:53;;;;;;;;;;;;;;;;;;5074890;28;20147;-75
2023/10/22 14:08:19;;;;;;;;;;;;;;;;;;5074866;28;19939;-75
2023/10/22 14:10:45;;;;;;;;;;;;;;;;;;5074472;28;19904;-75
2023/10/22 14:13:11;;;;;;;;;;;;;;;;;;5074797;28;19904;-75
2023/10/22 14:15:38;;;;;;;;;;;;;;;;;;5074767;28;20039;-75
2023/10/22 14:18:04;;;;;;;;;;;;;;;;;;5074585;28;19908;-75
2023/10/22 14:20:30;;;;;;;;;;;;;;;;;;5074649;28;20010;-76
2023/10/22 14:22:55;;;;;;;;;;;;;;;;;;5073395;28;19904;-75
2023/10/22 14:25:21;;;;;;;;;;;;;;;;;;5074261;28;19905;-75
2023/10/22 14:27:47;;;;;;;;;;;;;;;;;;5074345;28;19916;-75
2023/10/22 14:30:13;;;;;;;;;;;;;;;;;;5074448;28;19943;-75
2023/10/22 14:32:40;;;;;;;;;;;;;;;;;;5073968;28;19904;-75
2023/10/22 14:35:06;;;;;;;;;;;;;;;;;;5074488;28;19999;-75
2023/10/22 14:37:34;;;;;;;;;;;;;;;;;;5073864;28;19911;-75
2023/10/22 14:40:00;;;;;;;;;;;;;;;;;;5074136;28;19915;-75
2023/10/22 14:42:26;;;;;;;;;;;;;;;;;;5074305;28;19999;-75
2023/10/22 14:44:52;;;;;;;;;;;;;;;;;;5074247;28;19905;-75
2023/10/22 14:47:18;;;;;;;;;;;;;;;;;;5073824;28;19929;-75
2023/10/22 14:49:44;;;;;;;;;;;;;;;;;;5072857;28;20366;-75
2023/10/22 14:52:10;;;;;;;;;;;;;;;;;;5074114;28;19908;-75
2023/10/22 14:54:36;;;;;;;;;;;;;;;;;;5073780;28;19985;-75
2023/10/22 14:57:02;;;;;;;;;;;;;;;;;;5074274;28;19904;-75
2023/10/22 14:59:28;;;;;;;;;;;;;;;;;;5074052;28;19966;-75
2023/10/22 15:01:55;;;;;;;;;;;;;;;;;;5073606;28;20345;-75
2023/10/22 15:04:21;;;;;;;;;;;;;;;;;;5074280;28;19912;-76
2023/10/22 15:06:47;;;;;;;;;;;;;;;;;;5073747;28;19912;-75
2023/10/22 15:09:13;;;;;;;;;;;;;;;;;;5073908;28;19923;-75
2023/10/22 15:11:38;;;;;;;;;;;;;;;;;;5073993;28;19905;-75
2023/10/22 15:14:04;;;;;;;;;;;;;;;;;;5073848;28;20416;-75
2023/10/22 15:16:30;;;;;;;;;;;;;;;;;;5074023;28;20379;-76
2023/10/22 15:18:56;;;;;;;;;;;;;;;;;;5073861;28;20269;-75
2023/10/22 15:21:22;;;;;;;;;;;;;;;;;;5073383;28;19904;-75
2023/10/22 15:23:49;;;;;;;;;;;;;;;;;;5074093;28;20364;-75
2023/10/22 15:26:15;;;;;;;;;;;;;;;;;;5073502;28;20254;-75
2023/10/22 15:28:41;;;;;;;;;;;;;;;;;;5073457;28;19912;-75
2023/10/22 15:31:07;;;;;;;;;;;;;;;;;;5072451;28;19905;-75
2023/10/22 15:33:32;;;;;;;;;;;;;;;;;;5073716;28;19965;-75
2023/10/22 15:35:58;;;;;;;;;;;;;;;;;;5073464;28;19958;-75
2023/10/22 15:38:24;;;;;;;;;;;;;;;;;;5073763;28;19905;-75
2023/10/22 15:40:52;;;;;;;;;;;;;;;;;;5073999;28;20307;-75
2023/10/22 15:43:18;;;;;;;;;;;;;;;;;;5073320;28;19905;-75
2023/10/22 15:45:49;;;;;;;;;;;;;;;;;;5072306;28;19911;-75
2023/10/22 15:48:15;;;;;;;;;;;;;;;;;;5074512;28;20253;-75
2023/10/22 15:50:41;;;;;;;;;;;;;;;;;;5075910;28;19911;-77
2023/10/22 15:53:07;;;;;;;;;;;;;;;;;;5079607;28;19904;-77
2023/10/22 15:55:33;;;;;;;;;;;;;;;;;;5077471;28;19911;-77
2023/10/22 15:57:59;;;;;;;;;;;;;;;;;;5077096;28;19905;-76
2023/10/22 16:00:26;;;;;;;;;;;;;;;;;;5077431;28;19905;-76
2023/10/22 16:02:52;;;;;;;;;;;;;;;;;;5077014;28;20333;-76
2023/10/22 16:07:46;;;;;;;;;;;;;;;;;;5112494;27;19917;-76
2023/10/22 16:10:12;;;;;;;;;;;;;;;;;;5111495;28;20030;-76
2023/10/22 16:12:38;;;;;;;;;;;;;;;;;;5111687;28;20368;-76
2023/10/22 16:15:04;;;;;;;;;;;;;;;;;;5111914;28;20300;-75
2023/10/22 16:17:29;;;;;;;;;;;;;;;;;;5111155;28;20292;-75
2023/10/22 16:19:58;;;;;;;;;;;;;;;;;;5111506;28;19912;-75
2023/10/22 16:22:24;;;;;;;;;;;;;;;;;;5110244;28;19908;-75
2023/10/22 16:24:50;;;;;;;;;;;;;;;;;;5109779;28;19908;-75
2023/10/22 16:27:16;;;;;;;;;;;;;;;;;;5111367;28;19916;-75
2023/10/22 16:29:42;;;;;;;;;;;;;;;;;;5111389;28;19990;-75
2023/10/22 16:32:08;;;;;;;;;;;;;;;;;;5110892;28;19961;-74
2023/10/22 16:34:34;;;;;;;;;;;;;;;;;;5111246;28;19908;-77
2023/10/22 16:37:00;;;;;;;;;;;;;;;;;;5111211;28;19944;-77
2023/10/22 16:39:27;;;;;;;;;;;;;;;;;;5110606;28;20328;-75
2023/10/22 16:41:54;;;;;;;;;;;;;;;;;;5111156;28;19946;-76
2023/10/22 16:44:20;;;;;;;;;;;;;;;;;;5111246;28;20316;-76
2023/10/22 16:46:46;;;;;;;;;;;;;;;;;;5109321;28;20019;-75
2023/10/22 16:49:12;;;;;;;;;;;;;;;;;;5111255;28;19908;-76
2023/10/22 16:51:38;;;;;;;;;;;;;;;;;;5109651;28;19908;-76
2023/10/22 16:54:04;;;;;;;;;;;;;;;;;;5110526;28;19961;-76
2023/10/22 16:56:30;;;;;;;;;;;;;;;;;;5110859;28;19912;-76